INFORMAÇÕES DO AERODROMO
Icao Aerodromo SBAA Nome do Aerodromo Conceição do Araguaia Airport Cidade Conceição Do Araguaia
Código GPS SBAA Elevação Média 653 ft Tipo de Aerodromo Aeroporto Médio Porte

INFORMAÇÃO DE PISTA
Pista 8 Comprimento da Pista 5906 ft Largura da Pista 98 ft
Elevação da Pista 0 ft Distância de Area de Escape da Pista 0 ft Orientação da Pista 0
Pista 26 Comprimento da Pista 5906 ft Largura da Pista 98 ft
Elevação da Pista 0 ft Distância de Area de Escape da Pista 0 ft Orientação da Pista 0

FREQUÊNCIAS DO AERODROMO
Tipo AFIS Nome ARAGUAIA R Frequência 125.7 MHZ

INFORMAÇÕES DE NAVEGAÇÃO PRÓXIMO AO AERODROMO
Tipo NDB Nome Araguaia Frequência 230 KHZ

Informações de Meteorologia(METAR atual)
METAR DE SBAA
ADDS - METARS form results

(0527 UTC 05 June 2020)
Data provider http://aviationweather.gov/metar/data/
 
METAR text: SBAA 050500Z AUTO VRB02KT 1000 BR VV002 24/24 Q1013
Conditions at: SBAA (CONCEICAO ARAGUA, BR) observed 0500 UTC 05 June 2020
Temperature: 24.0°C (75°F)
Dewpoint: 24.0°C (75°F) [RH = 100%]
Pressure (altimeter): 29.91 inches Hg (1013.0 mb)
Winds: variable direction winds at 2 MPH (2 knots; 1.0 m/s)
Visibility: 0.62 miles (1.00 km)
Ceiling: indefinite ceiling with vertical visibility of 200 feet AGL
Clouds: obscured sky
Weather: BR  (mist)

MAPA DO AERODROMO


Desenvolvido por Virtual Airlines Manager




Modificado por Servidor Brasil Amigos